sensor_id;sensor_type;location;lat;lon;timestamp;P1;durP1;ratioP1;P2;durP2;ratioP2
52396;SDS011;38322;53.108;6.308;2023-07-20T05:01:24;3.38;;;2.28;;
52396;SDS011;38322;53.108;6.308;2023-07-20T05:03:52;6.13;;;2.72;;
52396;SDS011;38322;53.108;6.308;2023-07-20T05:06:18;5.03;;;3.25;;
52396;SDS011;38322;53.108;6.308;2023-07-20T05:08:44;4.18;;;3.17;;
52396;SDS011;38322;53.108;6.308;2023-07-20T05:11:10;3.22;;;2.97;;
52396;SDS011;38322;53.108;6.308;2023-07-20T05:13:37;2.83;;;2.63;;
52396;SDS011;38322;53.108;6.308;2023-07-20T05:16:03;3.55;;;3.20;;
52396;SDS011;38322;53.108;6.308;2023-07-20T05:18:29;3.42;;;2.95;;
52396;SDS011;38322;53.108;6.308;2023-07-20T05:20:55;4.90;;;2.47;;
52396;SDS011;38322;53.108;6.308;2023-07-20T05:23:21;6.10;;;2.53;;
52396;SDS011;38322;53.108;6.308;2023-07-20T05:25:47;4.80;;;2.50;;
52396;SDS011;38322;53.108;6.308;2023-07-20T05:28:19;1.95;;;1.85;;
52396;SDS011;38322;53.108;6.308;2023-07-20T05:30:44;3.20;;;2.00;;
52396;SDS011;38322;53.108;6.308;2023-07-20T05:33:10;2.50;;;1.95;;
52396;SDS011;38322;53.108;6.308;2023-07-20T05:35:36;2.60;;;2.20;;
52396;SDS011;38322;53.108;6.308;2023-07-20T05:38:02;2.60;;;2.40;;
52396;SDS011;38322;53.108;6.308;2023-07-20T05:40:30;3.63;;;2.38;;
52396;SDS011;38322;53.108;6.308;2023-07-20T05:42:56;2.60;;;1.92;;
52396;SDS011;38322;53.108;6.308;2023-07-20T05:45:22;2.90;;;1.95;;
52396;SDS011;38322;53.108;6.308;2023-07-20T05:47:48;5.53;;;1.88;;
52396;SDS011;38322;53.108;6.308;2023-07-20T05:50:15;3.17;;;2.15;;
52396;SDS011;38322;53.108;6.308;2023-07-20T05:52:41;3.45;;;1.95;;
52396;SDS011;38322;53.108;6.308;2023-07-20T05:55:06;4.00;;;2.30;;
52396;SDS011;38322;53.108;6.308;2023-07-20T05:57:33;8.20;;;2.67;;
52396;SDS011;38322;53.108;6.308;2023-07-20T05:59:59;2.42;;;1.50;;
52396;SDS011;38322;53.108;6.308;2023-07-20T06:02:25;1.95;;;1.65;;
52396;SDS011;38322;53.108;6.308;2023-07-20T06:04:51;4.72;;;1.63;;
52396;SDS011;38322;53.108;6.308;2023-07-20T06:07:17;5.40;;;2.17;;
52396;SDS011;38322;53.108;6.308;2023-07-20T06:09:42;5.30;;;1.88;;
52396;SDS011;38322;53.108;6.308;2023-07-20T06:12:08;2.22;;;1.60;;
52396;SDS011;38322;53.108;6.308;2023-07-20T06:14:34;3.13;;;1.30;;
52396;SDS011;38322;53.108;6.308;2023-07-20T06:17:00;4.18;;;1.77;;
52396;SDS011;38322;53.108;6.308;2023-07-20T06:19:26;2.05;;;1.40;;
52396;SDS011;38322;53.108;6.308;2023-07-20T06:21:52;3.42;;;1.20;;
52396;SDS011;38322;53.108;6.308;2023-07-20T06:24:18;2.97;;;1.33;;
52396;SDS011;38322;53.108;6.308;2023-07-20T06:26:44;2.50;;;1.13;;
52396;SDS011;38322;53.108;6.308;2023-07-20T06:29:09;1.80;;;0.63;;
52396;SDS011;38322;53.108;6.308;2023-07-20T06:31:35;2.15;;;0.90;;
52396;SDS011;38322;53.108;6.308;2023-07-20T06:34:02;3.28;;;1.05;;
52396;SDS011;38322;53.108;6.308;2023-07-20T06:36:28;3.30;;;1.35;;
52396;SDS011;38322;53.108;6.308;2023-07-20T06:38:54;2.38;;;0.80;;
52396;SDS011;38322;53.108;6.308;2023-07-20T06:41:20;1.88;;;0.65;;
52396;SDS011;38322;53.108;6.308;2023-07-20T06:43:46;1.60;;;0.68;;
52396;SDS011;38322;53.108;6.308;2023-07-20T06:46:12;1.75;;;0.85;;
52396;SDS011;38322;53.108;6.308;2023-07-20T06:48:39;6.20;;;0.90;;
52396;SDS011;38322;53.108;6.308;2023-07-20T06:51:04;4.70;;;0.80;;
52396;SDS011;38322;53.108;6.308;2023-07-20T06:53:31;2.17;;;0.63;;
52396;SDS011;38322;53.108;6.308;2023-07-20T06:55:58;5.53;;;0.70;;
52396;SDS011;38322;53.108;6.308;2023-07-20T06:58:23;1.88;;;0.80;;
52396;SDS011;38322;53.108;6.308;2023-07-20T07:00:50;7.43;;;1.00;;
52396;SDS011;38322;53.108;6.308;2023-07-20T07:03:16;2.03;;;0.55;;
52396;SDS011;38322;53.108;6.308;2023-07-20T07:05:42;5.07;;;0.52;;
52396;SDS011;38322;53.108;6.308;2023-07-20T07:08:08;2.63;;;0.80;;
52396;SDS011;38322;53.108;6.308;2023-07-20T07:10:34;3.10;;;0.32;;
52396;SDS011;38322;53.108;6.308;2023-07-20T07:13:01;2.08;;;0.40;;
52396;SDS011;38322;53.108;6.308;2023-07-20T07:15:27;6.25;;;0.52;;
52396;SDS011;38322;53.108;6.308;2023-07-20T07:17:53;1.92;;;0.70;;
52396;SDS011;38322;53.108;6.308;2023-07-20T07:20:19;1.75;;;0.32;;
52396;SDS011;38322;53.108;6.308;2023-07-20T07:22:45;1.80;;;0.52;;
52396;SDS011;38322;53.108;6.308;2023-07-20T07:25:12;6.90;;;1.08;;
52396;SDS011;38322;53.108;6.308;2023-07-20T07:27:38;1.90;;;0.80;;
52396;SDS011;38322;53.108;6.308;2023-07-20T07:30:04;1.42;;;0.60;;
52396;SDS011;38322;53.108;6.308;2023-07-20T07:32:31;4.10;;;0.30;;
52396;SDS011;38322;53.108;6.308;2023-07-20T07:34:56;3.13;;;1.40;;
52396;SDS011;38322;53.108;6.308;2023-07-20T07:37:23;2.17;;;0.98;;
52396;SDS011;38322;53.108;6.308;2023-07-20T07:39:49;3.47;;;0.98;;
52396;SDS011;38322;53.108;6.308;2023-07-20T07:42:15;3.97;;;1.15;;
52396;SDS011;38322;53.108;6.308;2023-07-20T07:44:41;4.95;;;1.00;;
52396;SDS011;38322;53.108;6.308;2023-07-20T07:47:07;1.75;;;0.68;;
52396;SDS011;38322;53.108;6.308;2023-07-20T07:49:32;5.18;;;0.80;;
52396;SDS011;38322;53.108;6.308;2023-07-20T07:51:59;3.60;;;0.77;;
52396;SDS011;38322;53.108;6.308;2023-07-20T07:54:27;1.25;;;0.82;;
52396;SDS011;38322;53.108;6.308;2023-07-20T07:56:54;2.97;;;0.70;;
52396;SDS011;38322;53.108;6.308;2023-07-20T07:59:20;1.48;;;0.82;;
52396;SDS011;38322;53.108;6.308;2023-07-20T08:01:46;3.88;;;1.13;;
52396;SDS011;38322;53.108;6.308;2023-07-20T08:04:12;2.35;;;1.48;;
52396;SDS011;38322;53.108;6.308;2023-07-20T08:06:38;3.30;;;1.17;;
52396;SDS011;38322;53.108;6.308;2023-07-20T08:09:04;2.97;;;1.45;;
52396;SDS011;38322;53.108;6.308;2023-07-20T08:11:30;5.57;;;1.30;;
52396;SDS011;38322;53.108;6.308;2023-07-20T08:13:59;3.03;;;1.42;;
52396;SDS011;38322;53.108;6.308;2023-07-20T08:16:25;3.22;;;1.17;;
52396;SDS011;38322;53.108;6.308;2023-07-20T08:18:51;3.08;;;0.85;;
52396;SDS011;38322;53.108;6.308;2023-07-20T08:21:17;3.47;;;1.27;;
52396;SDS011;38322;53.108;6.308;2023-07-20T08:23:43;1.20;;;0.85;;
52396;SDS011;38322;53.108;6.308;2023-07-20T08:26:09;3.97;;;1.23;;
52396;SDS011;38322;53.108;6.308;2023-07-20T08:28:35;5.03;;;1.88;;
52396;SDS011;38322;53.108;6.308;2023-07-20T08:31:01;4.10;;;1.10;;
52396;SDS011;38322;53.108;6.308;2023-07-20T08:33:28;4.72;;;1.65;;
52396;SDS011;38322;53.108;6.308;2023-07-20T08:35:58;3.65;;;1.27;;
52396;SDS011;38322;53.108;6.308;2023-07-20T08:38:26;2.15;;;0.93;;
52396;SDS011;38322;53.108;6.308;2023-07-20T08:40:52;2.72;;;0.63;;
52396;SDS011;38322;53.108;6.308;2023-07-20T08:43:19;2.10;;;0.73;;
52396;SDS011;38322;53.108;6.308;2023-07-20T08:45:48;5.47;;;0.75;;
52396;SDS011;38322;53.108;6.308;2023-07-20T08:48:16;4.47;;;1.35;;
52396;SDS011;38322;53.108;6.308;2023-07-20T08:50:45;3.70;;;1.30;;
52396;SDS011;38322;53.108;6.308;2023-07-20T08:53:12;3.83;;;0.80;;
52396;SDS011;38322;53.108;6.308;2023-07-20T08:55:39;1.65;;;0.50;;
52396;SDS011;38322;53.108;6.308;2023-07-20T08:58:08;2.95;;;1.17;;
52396;SDS011;38322;53.108;6.308;2023-07-20T09:00:36;5.18;;;1.30;;
52396;SDS011;38322;53.108;6.308;2023-07-20T09:03:02;1.60;;;0.65;;
52396;SDS011;38322;53.108;6.308;2023-07-20T09:05:29;1.52;;;0.35;;
52396;SDS011;38322;53.108;6.308;2023-07-20T09:07:55;1.38;;;0.57;;
52396;SDS011;38322;53.108;6.308;2023-07-20T09:10:22;1.00;;;0.50;;
52396;SDS011;38322;53.108;6.308;2023-07-20T09:12:48;2.03;;;0.32;;
52396;SDS011;38322;53.108;6.308;2023-07-20T09:15:14;2.40;;;0.55;;
52396;SDS011;38322;53.108;6.308;2023-07-20T09:17:46;3.35;;;0.75;;
52396;SDS011;38322;53.108;6.308;2023-07-20T09:20:14;2.22;;;0.60;;
52396;SDS011;38322;53.108;6.308;2023-07-20T09:22:42;3.17;;;1.02;;
52396;SDS011;38322;53.108;6.308;2023-07-20T09:27:53;2.85;;;0.50;;
52396;SDS011;38322;53.108;6.308;2023-07-20T09:30:19;1.23;;;0.50;;
52396;SDS011;38322;53.108;6.308;2023-07-20T09:32:50;3.40;;;0.60;;
52396;SDS011;38322;53.108;6.308;2023-07-20T09:35:17;3.40;;;0.40;;
52396;SDS011;38322;53.108;6.308;2023-07-20T09:37:49;1.27;;;0.60;;
52396;SDS011;38322;53.108;6.308;2023-07-20T09:40:17;3.00;;;0.85;;
52396;SDS011;38322;53.108;6.308;2023-07-20T09:42:44;1.05;;;0.30;;
52396;SDS011;38322;53.108;6.308;2023-07-20T09:45:10;3.50;;;0.45;;
52396;SDS011;38322;53.108;6.308;2023-07-20T09:47:37;1.52;;;0.68;;
52396;SDS011;38322;53.108;6.308;2023-07-20T09:50:03;2.65;;;0.30;;
52396;SDS011;38322;53.108;6.308;2023-07-20T09:52:30;2.47;;;0.40;;
52396;SDS011;38322;53.108;6.308;2023-07-20T09:54:57;1.08;;;0.50;;
52396;SDS011;38322;53.108;6.308;2023-07-20T09:57:23;2.22;;;0.20;;
52396;SDS011;38322;53.108;6.308;2023-07-20T09:59:51;7.22;;;0.55;;
52396;SDS011;38322;53.108;6.308;2023-07-20T10:02:20;2.97;;;0.57;;
52396;SDS011;38322;53.108;6.308;2023-07-20T10:04:51;1.45;;;0.30;;
52396;SDS011;38322;53.108;6.308;2023-07-20T10:07:19;2.25;;;0.20;;
52396;SDS011;38322;53.108;6.308;2023-07-20T10:09:48;3.67;;;0.75;;
52396;SDS011;38322;53.108;6.308;2023-07-20T10:12:17;1.85;;;0.40;;
52396;SDS011;38322;53.108;6.308;2023-07-20T10:14:49;2.40;;;0.47;;
52396;SDS011;38322;53.108;6.308;2023-07-20T10:17:22;0.70;;;0.20;;
52396;SDS011;38322;53.108;6.308;2023-07-20T10:19:50;2.35;;;1.40;;
52396;SDS011;38322;53.108;6.308;2023-07-20T10:22:21;0.88;;;0.32;;
52396;SDS011;38322;53.108;6.308;2023-07-20T10:24:51;6.35;;;0.65;;
52396;SDS011;38322;53.108;6.308;2023-07-20T10:27:19;1.67;;;0.50;;
52396;SDS011;38322;53.108;6.308;2023-07-20T10:29:46;3.03;;;0.43;;
52396;SDS011;38322;53.108;6.308;2023-07-20T10:32:13;1.95;;;0.52;;
52396;SDS011;38322;53.108;6.308;2023-07-20T10:34:39;1.80;;;0.50;;
52396;SDS011;38322;53.108;6.308;2023-07-20T10:37:05;3.42;;;0.50;;
52396;SDS011;38322;53.108;6.308;2023-07-20T10:39:32;2.83;;;0.30;;
52396;SDS011;38322;53.108;6.308;2023-07-20T10:42:07;2.50;;;0.30;;
52396;SDS011;38322;53.108;6.308;2023-07-20T10:44:40;2.38;;;0.38;;
52396;SDS011;38322;53.108;6.308;2023-07-20T10:47:08;1.98;;;0.57;;
52396;SDS011;38322;53.108;6.308;2023-07-20T10:49:38;2.58;;;0.40;;
52396;SDS011;38322;53.108;6.308;2023-07-20T10:52:36;3.65;;;0.60;;
52396;SDS011;38322;53.108;6.308;2023-07-20T10:55:10;3.53;;;0.40;;
52396;SDS011;38322;53.108;6.308;2023-07-20T10:57:37;2.08;;;0.90;;
52396;SDS011;38322;53.108;6.308;2023-07-20T11:00:08;2.20;;;0.40;;
52396;SDS011;38322;53.108;6.308;2023-07-20T11:02:45;5.53;;;0.50;;
52396;SDS011;38322;53.108;6.308;2023-07-20T11:05:32;3.08;;;0.32;;
52396;SDS011;38322;53.108;6.308;2023-07-20T11:08:03;4.95;;;0.70;;
52396;SDS011;38322;53.108;6.308;2023-07-20T11:10:30;1.88;;;0.73;;
52396;SDS011;38322;53.108;6.308;2023-07-20T11:13:25;2.65;;;0.75;;
52396;SDS011;38322;53.108;6.308;2023-07-20T11:15:44;1.75;;;0.35;;
52396;SDS011;38322;53.108;6.308;2023-07-20T11:18:11;1.17;;;0.30;;
52396;SDS011;38322;53.108;6.308;2023-07-20T11:20:38;3.63;;;0.70;;
52396;SDS011;38322;53.108;6.308;2023-07-20T11:23:04;2.53;;;0.52;;
52396;SDS011;38322;53.108;6.308;2023-07-20T11:25:37;3.35;;;0.93;;
52396;SDS011;38322;53.108;6.308;2023-07-20T11:28:08;5.53;;;1.40;;
52396;SDS011;38322;53.108;6.308;2023-07-20T11:30:36;1.23;;;0.52;;
52396;SDS011;38322;53.108;6.308;2023-07-20T11:33:03;2.55;;;0.40;;
52396;SDS011;38322;53.108;6.308;2023-07-20T11:35:30;1.80;;;0.47;;
52396;SDS011;38322;53.108;6.308;2023-07-20T11:38:00;1.25;;;0.20;;
52396;SDS011;38322;53.108;6.308;2023-07-20T11:40:26;3.17;;;0.60;;
52396;SDS011;38322;53.108;6.308;2023-07-20T11:42:52;2.08;;;0.60;;
52396;SDS011;38322;53.108;6.308;2023-07-20T11:45:19;3.28;;;0.70;;
52396;SDS011;38322;53.108;6.308;2023-07-20T11:47:45;6.68;;;1.25;;
52396;SDS011;38322;53.108;6.308;2023-07-20T11:50:11;4.63;;;1.60;;
52396;SDS011;38322;53.108;6.308;2023-07-20T11:52:39;4.90;;;0.65;;
52396;SDS011;38322;53.108;6.308;2023-07-20T11:55:06;2.70;;;0.80;;
52396;SDS011;38322;53.108;6.308;2023-07-20T11:57:32;5.05;;;0.57;;
52396;SDS011;38322;53.108;6.308;2023-07-20T12:00:00;3.00;;;0.90;;
52396;SDS011;38322;53.108;6.308;2023-07-20T12:02:34;4.15;;;0.70;;
52396;SDS011;38322;53.108;6.308;2023-07-20T12:05:01;3.50;;;0.73;;
52396;SDS011;38322;53.108;6.308;2023-07-20T12:07:28;1.50;;;0.68;;
52396;SDS011;38322;53.108;6.308;2023-07-20T12:10:04;1.27;;;0.90;;
52396;SDS011;38322;53.108;6.308;2023-07-20T12:12:37;2.53;;;0.90;;
52396;SDS011;38322;53.108;6.308;2023-07-20T12:15:13;3.38;;;0.90;;
52396;SDS011;38322;53.108;6.308;2023-07-20T12:17:41;3.20;;;1.25;;
52396;SDS011;38322;53.108;6.308;2023-07-20T12:20:08;6.07;;;0.98;;
52396;SDS011;38322;53.108;6.308;2023-07-20T12:22:38;2.50;;;0.52;;
52396;SDS011;38322;53.108;6.308;2023-07-20T12:25:06;1.92;;;0.47;;
52396;SDS011;38322;53.108;6.308;2023-07-20T12:27:35;2.42;;;0.50;;
52396;SDS011;38322;53.108;6.308;2023-07-20T12:30:02;1.02;;;0.30;;
52396;SDS011;38322;53.108;6.308;2023-07-20T12:32:29;1.67;;;0.45;;
52396;SDS011;38322;53.108;6.308;2023-07-20T12:34:55;1.77;;;0.35;;
52396;SDS011;38322;53.108;6.308;2023-07-20T12:37:21;1.92;;;0.52;;
52396;SDS011;38322;53.108;6.308;2023-07-20T12:39:47;1.65;;;1.05;;
52396;SDS011;38322;53.108;6.308;2023-07-20T12:42:13;3.20;;;1.65;;
52396;SDS011;38322;53.108;6.308;2023-07-20T12:44:40;1.20;;;0.60;;
52396;SDS011;38322;53.108;6.308;2023-07-20T12:47:06;2.83;;;0.68;;
52396;SDS011;38322;53.108;6.308;2023-07-20T12:49:32;2.20;;;0.60;;
52396;SDS011;38322;53.108;6.308;2023-07-20T12:51:58;1.15;;;0.47;;
52396;SDS011;38322;53.108;6.308;2023-07-20T12:54:24;1.80;;;0.60;;
52396;SDS011;38322;53.108;6.308;2023-07-20T12:56:50;1.10;;;0.30;;
52396;SDS011;38322;53.108;6.308;2023-07-20T12:59:15;4.10;;;0.40;;
52396;SDS011;38322;53.108;6.308;2023-07-20T13:01:41;0.90;;;0.50;;
52396;SDS011;38322;53.108;6.308;2023-07-20T13:04:09;2.80;;;0.70;;
52396;SDS011;38322;53.108;6.308;2023-07-20T13:06:35;1.65;;;0.70;;
52396;SDS011;38322;53.108;6.308;2023-07-20T13:09:01;1.75;;;0.40;;
52396;SDS011;38322;53.108;6.308;2023-07-20T13:11:28;1.05;;;0.30;;
52396;SDS011;38322;53.108;6.308;2023-07-20T13:13:54;0.75;;;0.30;;
52396;SDS011;38322;53.108;6.308;2023-07-20T13:16:20;3.97;;;0.57;;
52396;SDS011;38322;53.108;6.308;2023-07-20T13:18:46;2.72;;;0.52;;
52396;SDS011;38322;53.108;6.308;2023-07-20T13:21:11;3.80;;;0.90;;
52396;SDS011;38322;53.108;6.308;2023-07-20T13:23:38;3.03;;;0.70;;
52396;SDS011;38322;53.108;6.308;2023-07-20T13:26:04;3.00;;;0.50;;
52396;SDS011;38322;53.108;6.308;2023-07-20T13:28:30;2.40;;;0.70;;
52396;SDS011;38322;53.108;6.308;2023-07-20T13:30:56;3.20;;;0.68;;
52396;SDS011;38322;53.108;6.308;2023-07-20T13:33:22;2.85;;;0.75;;
52396;SDS011;38322;53.108;6.308;2023-07-20T13:35:48;2.67;;;0.93;;
52396;SDS011;38322;53.108;6.308;2023-07-20T13:38:13;1.38;;;0.50;;
52396;SDS011;38322;53.108;6.308;2023-07-20T13:40:39;9.85;;;1.63;;
52396;SDS011;38322;53.108;6.308;2023-07-20T13:43:05;2.05;;;0.57;;
52396;SDS011;38322;53.108;6.308;2023-07-20T13:45:31;2.05;;;0.63;;
52396;SDS011;38322;53.108;6.308;2023-07-20T13:47:57;3.60;;;1.00;;
52396;SDS011;38322;53.108;6.308;2023-07-20T13:50:22;1.63;;;0.80;;
52396;SDS011;38322;53.108;6.308;2023-07-20T13:52:48;3.80;;;0.80;;
52396;SDS011;38322;53.108;6.308;2023-07-20T13:55:14;2.55;;;0.60;;
52396;SDS011;38322;53.108;6.308;2023-07-20T13:57:40;3.35;;;0.85;;
52396;SDS011;38322;53.108;6.308;2023-07-20T14:00:06;5.30;;;1.23;;
52396;SDS011;38322;53.108;6.308;2023-07-20T14:02:36;2.70;;;0.60;;
52396;SDS011;38322;53.108;6.308;2023-07-20T14:05:02;2.92;;;0.43;;
52396;SDS011;38322;53.108;6.308;2023-07-20T14:07:28;1.70;;;0.55;;
52396;SDS011;38322;53.108;6.308;2023-07-20T14:09:54;1.25;;;0.57;;
52396;SDS011;38322;53.108;6.308;2023-07-20T14:12:19;0.85;;;0.40;;
52396;SDS011;38322;53.108;6.308;2023-07-20T14:14:45;1.38;;;0.60;;
52396;SDS011;38322;53.108;6.308;2023-07-20T14:17:11;1.98;;;0.65;;
52396;SDS011;38322;53.108;6.308;2023-07-20T14:19:37;1.17;;;0.47;;
52396;SDS011;38322;53.108;6.308;2023-07-20T14:22:03;2.05;;;0.43;;
52396;SDS011;38322;53.108;6.308;2023-07-20T14:24:30;1.55;;;0.50;;
52396;SDS011;38322;53.108;6.308;2023-07-20T14:26:56;4.43;;;0.85;;
52396;SDS011;38322;53.108;6.308;2023-07-20T14:29:22;1.45;;;0.40;;
52396;SDS011;38322;53.108;6.308;2023-07-20T14:31:48;1.42;;;0.95;;
52396;SDS011;38322;53.108;6.308;2023-07-20T14:34:16;1.63;;;0.30;;
52396;SDS011;38322;53.108;6.308;2023-07-20T14:36:44;0.77;;;0.40;;
52396;SDS011;38322;53.108;6.308;2023-07-20T14:39:10;3.15;;;0.45;;
52396;SDS011;38322;53.108;6.308;2023-07-20T14:41:36;2.80;;;0.50;;
52396;SDS011;38322;53.108;6.308;2023-07-20T14:44:02;1.80;;;0.52;;
52396;SDS011;38322;53.108;6.308;2023-07-20T14:46:28;1.48;;;0.43;;
52396;SDS011;38322;53.108;6.308;2023-07-20T14:48:54;1.60;;;0.60;;
52396;SDS011;38322;53.108;6.308;2023-07-20T14:51:20;3.20;;;0.47;;
52396;SDS011;38322;53.108;6.308;2023-07-20T14:53:46;1.48;;;0.50;;
52396;SDS011;38322;53.108;6.308;2023-07-20T14:56:12;0.80;;;0.30;;
52396;SDS011;38322;53.108;6.308;2023-07-20T14:58:37;1.10;;;0.60;;
52396;SDS011;38322;53.108;6.308;2023-07-20T15:01:03;0.40;;;0.20;;
52396;SDS011;38322;53.108;6.308;2023-07-20T15:03:29;0.93;;;0.40;;
52396;SDS011;38322;53.108;6.308;2023-07-20T15:05:56;1.17;;;0.65;;
52396;SDS011;38322;53.108;6.308;2023-07-20T15:08:22;2.15;;;0.30;;
52396;SDS011;38322;53.108;6.308;2023-07-20T15:10:49;1.20;;;0.20;;
52396;SDS011;38322;53.108;6.308;2023-07-20T15:13:15;0.85;;;0.43;;
52396;SDS011;38322;53.108;6.308;2023-07-20T15:15:41;2.40;;;0.30;;
52396;SDS011;38322;53.108;6.308;2023-07-20T15:18:08;1.30;;;0.47;;
52396;SDS011;38322;53.108;6.308;2023-07-20T15:20:34;1.05;;;0.47;;
52396;SDS011;38322;53.108;6.308;2023-07-20T15:23:00;0.85;;;0.43;;
52396;SDS011;38322;53.108;6.308;2023-07-20T15:25:25;2.13;;;1.02;;
52396;SDS011;38322;53.108;6.308;2023-07-20T15:27:51;0.60;;;0.38;;
52396;SDS011;38322;53.108;6.308;2023-07-20T15:30:17;4.30;;;0.52;;
52396;SDS011;38322;53.108;6.308;2023-07-20T15:32:43;1.35;;;0.35;;
52396;SDS011;38322;53.108;6.308;2023-07-20T15:35:09;1.13;;;0.30;;
52396;SDS011;38322;53.108;6.308;2023-07-20T15:37:37;1.63;;;0.30;;
52396;SDS011;38322;53.108;6.308;2023-07-20T15:40:03;1.23;;;0.35;;
52396;SDS011;38322;53.108;6.308;2023-07-20T15:42:30;1.35;;;0.73;;
52396;SDS011;38322;53.108;6.308;2023-07-20T15:44:56;2.55;;;0.45;;
52396;SDS011;38322;53.108;6.308;2023-07-20T15:47:23;1.00;;;0.38;;
52396;SDS011;38322;53.108;6.308;2023-07-20T15:49:48;1.65;;;0.50;;
52396;SDS011;38322;53.108;6.308;2023-07-20T15:52:15;1.67;;;0.40;;
52396;SDS011;38322;53.108;6.308;2023-07-20T15:54:42;2.08;;;0.68;;
52396;SDS011;38322;53.108;6.308;2023-07-20T15:57:08;1.98;;;0.38;;
52396;SDS011;38322;53.108;6.308;2023-07-20T15:59:34;0.77;;;0.30;;
52396;SDS011;38322;53.108;6.308;2023-07-20T16:02:00;1.33;;;0.60;;
52396;SDS011;38322;53.108;6.308;2023-07-20T16:04:26;1.13;;;0.50;;
52396;SDS011;38322;53.108;6.308;2023-07-20T16:06:52;1.52;;;0.63;;
52396;SDS011;38322;53.108;6.308;2023-07-20T16:09:18;3.58;;;0.70;;
52396;SDS011;38322;53.108;6.308;2023-07-20T16:11:45;1.30;;;0.52;;
52396;SDS011;38322;53.108;6.308;2023-07-20T16:14:11;0.70;;;0.25;;
52396;SDS011;38322;53.108;6.308;2023-07-20T16:16:37;1.15;;;0.30;;
52396;SDS011;38322;53.108;6.308;2023-07-20T16:19:03;1.25;;;0.50;;
52396;SDS011;38322;53.108;6.308;2023-07-20T16:21:29;1.85;;;0.75;;
52396;SDS011;38322;53.108;6.308;2023-07-20T16:23:57;1.40;;;0.75;;
52396;SDS011;38322;53.108;6.308;2023-07-20T16:26:24;2.35;;;0.50;;
52396;SDS011;38322;53.108;6.308;2023-07-20T16:28:50;2.00;;;0.80;;
52396;SDS011;38322;53.108;6.308;2023-07-20T16:31:17;0.75;;;0.40;;
52396;SDS011;38322;53.108;6.308;2023-07-20T16:33:43;2.70;;;0.40;;
52396;SDS011;38322;53.108;6.308;2023-07-20T16:36:10;0.73;;;0.35;;
52396;SDS011;38322;53.108;6.308;2023-07-20T16:38:38;1.17;;;0.38;;
52396;SDS011;38322;53.108;6.308;2023-07-20T16:41:05;1.35;;;0.63;;
52396;SDS011;38322;53.108;6.308;2023-07-20T16:43:33;0.73;;;0.30;;
52396;SDS011;38322;53.108;6.308;2023-07-20T16:46:00;2.40;;;0.50;;
52396;SDS011;38322;53.108;6.308;2023-07-20T16:48:26;3.03;;;0.45;;
52396;SDS011;38322;53.108;6.308;2023-07-20T16:50:53;1.55;;;0.40;;
52396;SDS011;38322;53.108;6.308;2023-07-20T16:53:19;0.85;;;0.30;;
52396;SDS011;38322;53.108;6.308;2023-07-20T16:55:47;1.05;;;0.40;;
52396;SDS011;38322;53.108;6.308;2023-07-20T16:58:18;1.80;;;0.38;;
52396;SDS011;38322;53.108;6.308;2023-07-20T17:00:46;0.98;;;0.30;;
52396;SDS011;38322;53.108;6.308;2023-07-20T17:03:14;2.55;;;0.50;;
52396;SDS011;38322;53.108;6.308;2023-07-20T17:05:41;1.05;;;0.30;;
52396;SDS011;38322;53.108;6.308;2023-07-20T17:08:08;2.63;;;0.70;;
52396;SDS011;38322;53.108;6.308;2023-07-20T17:10:35;2.15;;;0.98;;
52396;SDS011;38322;53.108;6.308;2023-07-20T17:13:01;0.47;;;0.30;;
52396;SDS011;38322;53.108;6.308;2023-07-20T17:15:28;0.82;;;0.47;;
52396;SDS011;38322;53.108;6.308;2023-07-20T17:17:56;2.47;;;1.00;;
52396;SDS011;38322;53.108;6.308;2023-07-20T17:20:22;2.67;;;0.90;;
52396;SDS011;38322;53.108;6.308;2023-07-20T17:22:48;0.90;;;0.45;;
52396;SDS011;38322;53.108;6.308;2023-07-20T17:25:14;2.45;;;0.50;;
52396;SDS011;38322;53.108;6.308;2023-07-20T17:27:40;2.22;;;0.65;;
52396;SDS011;38322;53.108;6.308;2023-07-20T17:30:06;1.10;;;0.25;;
52396;SDS011;38322;53.108;6.308;2023-07-20T17:32:32;1.00;;;0.40;;
52396;SDS011;38322;53.108;6.308;2023-07-20T17:34:58;1.55;;;0.40;;
52396;SDS011;38322;53.108;6.308;2023-07-20T17:37:24;1.35;;;0.32;;
52396;SDS011;38322;53.108;6.308;2023-07-20T17:39:50;1.60;;;0.43;;
52396;SDS011;38322;53.108;6.308;2023-07-20T17:42:17;1.27;;;0.52;;
52396;SDS011;38322;53.108;6.308;2023-07-20T17:44:44;0.80;;;0.30;;
52396;SDS011;38322;53.108;6.308;2023-07-20T17:47:10;1.48;;;0.35;;
52396;SDS011;38322;53.108;6.308;2023-07-20T17:49:36;0.93;;;0.30;;
52396;SDS011;38322;53.108;6.308;2023-07-20T17:52:02;0.60;;;0.20;;
52396;SDS011;38322;53.108;6.308;2023-07-20T17:54:28;1.20;;;0.40;;
52396;SDS011;38322;53.108;6.308;2023-07-20T17:56:54;3.13;;;0.30;;
52396;SDS011;38322;53.108;6.308;2023-07-20T17:59:20;1.92;;;0.55;;
52396;SDS011;38322;53.108;6.308;2023-07-20T18:01:46;2.72;;;0.45;;
52396;SDS011;38322;53.108;6.308;2023-07-20T18:04:12;1.02;;;0.20;;
52396;SDS011;38322;53.108;6.308;2023-07-20T18:06:38;2.17;;;0.70;;
52396;SDS011;38322;53.108;6.308;2023-07-20T18:09:04;2.83;;;0.32;;
52396;SDS011;38322;53.108;6.308;2023-07-20T18:11:32;0.80;;;0.17;;
52396;SDS011;38322;53.108;6.308;2023-07-20T18:13:58;2.35;;;0.47;;
52396;SDS011;38322;53.108;6.308;2023-07-20T18:16:26;1.92;;;0.55;;
52396;SDS011;38322;53.108;6.308;2023-07-20T18:18:52;1.60;;;0.38;;
52396;SDS011;38322;53.108;6.308;2023-07-20T18:21:18;3.72;;;0.85;;
52396;SDS011;38322;53.108;6.308;2023-07-20T18:23:44;2.80;;;0.52;;
52396;SDS011;38322;53.108;6.308;2023-07-20T18:26:10;1.48;;;0.63;;
52396;SDS011;38322;53.108;6.308;2023-07-20T18:28:35;5.05;;;0.52;;
52396;SDS011;38322;53.108;6.308;2023-07-20T18:31:05;2.63;;;0.43;;
52396;SDS011;38322;53.108;6.308;2023-07-20T18:33:31;2.85;;;0.50;;
52396;SDS011;38322;53.108;6.308;2023-07-20T18:35:57;3.45;;;0.47;;
52396;SDS011;38322;53.108;6.308;2023-07-20T18:38:22;1.35;;;0.70;;
52396;SDS011;38322;53.108;6.308;2023-07-20T18:40:49;0.90;;;0.50;;
52396;SDS011;38322;53.108;6.308;2023-07-20T18:43:15;2.30;;;0.65;;
52396;SDS011;38322;53.108;6.308;2023-07-20T18:45:40;1.58;;;0.40;;
52396;SDS011;38322;53.108;6.308;2023-07-20T18:48:06;1.45;;;0.50;;
52396;SDS011;38322;53.108;6.308;2023-07-20T18:50:33;4.43;;;0.57;;
52396;SDS011;38322;53.108;6.308;2023-07-20T18:53:00;2.47;;;0.57;;
52396;SDS011;38322;53.108;6.308;2023-07-20T18:55:26;0.77;;;0.22;;
52396;SDS011;38322;53.108;6.308;2023-07-20T18:57:52;2.88;;;0.75;;
52396;SDS011;38322;53.108;6.308;2023-07-20T19:00:18;1.73;;;0.50;;
52396;SDS011;38322;53.108;6.308;2023-07-20T19:02:44;1.23;;;0.50;;
52396;SDS011;38322;53.108;6.308;2023-07-20T19:05:10;0.93;;;0.63;;
52396;SDS011;38322;53.108;6.308;2023-07-20T19:07:37;1.20;;;0.65;;
52396;SDS011;38322;53.108;6.308;2023-07-20T19:10:03;2.40;;;0.35;;
52396;SDS011;38322;53.108;6.308;2023-07-20T19:12:31;2.25;;;0.68;;
52396;SDS011;38322;53.108;6.308;2023-07-20T19:14:57;3.67;;;1.27;;
52396;SDS011;38322;53.108;6.308;2023-07-20T19:17:23;2.45;;;1.30;;
52396;SDS011;38322;53.108;6.308;2023-07-20T19:19:51;2.55;;;1.35;;
52396;SDS011;38322;53.108;6.308;2023-07-20T19:22:17;2.90;;;0.85;;
52396;SDS011;38322;53.108;6.308;2023-07-20T19:24:43;4.35;;;1.75;;
52396;SDS011;38322;53.108;6.308;2023-07-20T19:27:08;3.50;;;1.30;;
52396;SDS011;38322;53.108;6.308;2023-07-20T19:29:34;2.50;;;1.10;;
52396;SDS011;38322;53.108;6.308;2023-07-20T19:32:00;2.72;;;1.20;;
52396;SDS011;38322;53.108;6.308;2023-07-20T19:34:26;4.32;;;1.25;;
52396;SDS011;38322;53.108;6.308;2023-07-20T19:36:52;6.00;;;1.40;;
52396;SDS011;38322;53.108;6.308;2023-07-20T19:39:18;4.30;;;1.95;;
52396;SDS011;38322;53.108;6.308;2023-07-20T19:41:44;5.38;;;1.77;;
52396;SDS011;38322;53.108;6.308;2023-07-20T19:44:10;2.05;;;1.55;;
52396;SDS011;38322;53.108;6.308;2023-07-20T19:46:37;4.75;;;1.45;;
52396;SDS011;38322;53.108;6.308;2023-07-20T19:49:04;3.42;;;1.98;;